Time;durP1;ratioP1;P1;durP2;ratioP2;P2;SDS_P1;SDS_P2;PMS_P1;PMS_P2;Temp;Humidity;BMP_temperature;BMP_pressure;BME280_temperature;BME280_humidity;BME280_pressure;Samples;Min_cycle;Max_cycle;Signal;HPM_P1;HPM_P2
2023/03/04 00:00:42;;;;;;;21.30;10.43;;;-0.10;99.90;;;;;;5054329;28;20087;-77
2023/03/04 00:03:09;;;;;;;25.17;9.88;;;-0.10;99.90;;;;;;5054563;28;20025;-76
2023/03/04 00:05:36;;;;;;;22.95;10.10;;;0.00;99.90;;;;;;5053289;28;20436;-76
2023/03/04 00:08:02;;;;;;;29.90;11.05;;;-0.20;99.90;;;;;;5052895;28;20501;-77
2023/03/04 00:10:28;;;;;;;19.90;9.07;;;-0.20;99.90;;;;;;5053593;28;20064;-77
2023/03/04 00:12:53;;;;;;;23.25;10.18;;;-0.20;99.90;;;;;;5052899;28;20078;-76
2023/03/04 00:15:19;;;;;;;25.23;10.95;;;-0.20;99.90;;;;;;5051645;28;20035;-77
2023/03/04 00:17:45;;;;;;;27.40;12.45;;;-0.20;99.90;;;;;;5052780;28;20108;-77
2023/03/04 00:20:12;;;;;;;20.20;10.15;;;-0.30;99.90;;;;;;5051881;28;20028;-76
2023/03/04 00:22:38;;;;;;;22.23;10.82;;;-0.40;99.90;;;;;;5052483;28;20029;-77
2023/03/04 00:25:04;;;;;;;23.75;11.00;;;-0.40;99.90;;;;;;5050942;28;20021;-76
2023/03/04 00:27:29;;;;;;;22.35;10.05;;;-0.30;99.90;;;;;;5052012;28;20029;-76
2023/03/04 00:29:55;;;;;;;24.17;10.93;;;-0.40;99.90;;;;;;5051578;28;20379;-77
2023/03/04 00:32:21;;;;;;;21.40;9.40;;;-0.40;99.90;;;;;;5052872;28;20078;-77
2023/03/04 00:34:47;;;;;;;30.67;11.13;;;-0.30;99.90;;;;;;5051119;28;20032;-77
2023/03/04 00:37:13;;;;;;;27.73;11.57;;;-0.20;99.90;;;;;;5051238;28;20072;-77
2023/03/04 00:39:39;;;;;;;19.92;9.90;;;-0.40;99.90;;;;;;5051327;28;20029;-78
2023/03/04 00:42:05;;;;;;;23.85;9.98;;;-0.30;99.90;;;;;;5051248;28;20032;-77
2023/03/04 00:44:30;;;;;;;26.00;11.18;;;-0.30;99.90;;;;;;5051156;28;20029;-77
2023/03/04 00:46:56;;;;;;;22.15;11.15;;;-0.40;99.90;;;;;;5052546;28;20033;-76
2023/03/04 00:49:21;;;;;;;21.58;10.00;;;-0.50;99.90;;;;;;5052947;28;20029;-77
2023/03/04 00:51:47;;;;;;;24.90;10.82;;;-0.50;99.90;;;;;;5055436;28;20112;-78
2023/03/04 00:54:13;;;;;;;24.02;10.02;;;-0.60;99.90;;;;;;5056576;28;20025;-76
2023/03/04 00:56:38;;;;;;;24.58;10.38;;;-0.60;99.90;;;;;;5056006;28;20108;-76
2023/03/04 00:59:04;;;;;;;21.30;10.38;;;-0.60;99.90;;;;;;5054452;28;20040;-79
2023/03/04 01:01:30;;;;;;;21.63;10.60;;;-0.20;99.90;;;;;;5054699;28;20029;-77
2023/03/04 01:03:55;;;;;;;24.73;10.90;;;-0.50;99.90;;;;;;5055517;28;20029;-77
2023/03/04 01:06:21;;;;;;;21.25;10.52;;;-0.50;99.90;;;;;;5055947;28;20091;-76
2023/03/04 01:08:47;;;;;;;28.23;11.23;;;-0.50;99.90;;;;;;5055718;28;20401;-76
2023/03/04 01:11:12;;;;;;;22.83;10.48;;;-0.50;99.90;;;;;;5054519;28;20036;-77
2023/03/04 01:13:39;;;;;;;20.63;9.93;;;-0.40;99.90;;;;;;5055047;28;20028;-77
2023/03/04 01:16:05;;;;;;;22.13;10.98;;;-0.40;99.90;;;;;;5055825;28;20056;-77
2023/03/04 01:18:31;;;;;;;26.27;11.88;;;-0.40;99.90;;;;;;5055906;28;20032;-77
2023/03/04 01:20:57;;;;;;;20.58;10.40;;;-0.40;99.90;;;;;;5055936;28;20025;-77
2023/03/04 01:23:22;;;;;;;26.35;11.77;;;-0.40;99.90;;;;;;5054865;28;20025;-77
2023/03/04 01:25:48;;;;;;;21.10;10.27;;;-0.60;99.90;;;;;;5061490;28;20044;-75
2023/03/04 01:28:14;;;;;;;28.55;11.38;;;-0.70;99.90;;;;;;5063573;28;20028;-76
2023/03/04 01:30:40;;;;;;;23.83;10.10;;;-0.80;99.90;;;;;;5063644;28;20021;-77
2023/03/04 01:33:05;;;;;;;31.85;11.52;;;-0.80;99.90;;;;;;5065304;28;20021;-78
2023/03/04 01:35:31;;;;;;;27.20;12.35;;;-0.80;99.90;;;;;;5065380;28;20499;-78
2023/03/04 01:37:57;;;;;;;23.40;9.93;;;-0.60;99.90;;;;;;5064404;28;20066;-76
2023/03/04 01:40:22;;;;;;;30.80;11.10;;;-0.70;99.90;;;;;;5064735;28;20028;-78
2023/03/04 01:42:48;;;;;;;21.15;10.90;;;-0.70;99.90;;;;;;5064678;28;20443;-76
2023/03/04 01:45:16;;;;;;;22.75;10.73;;;-0.70;99.90;;;;;;5064998;28;20351;-76
2023/03/04 01:47:47;;;;;;;23.30;10.07;;;-0.70;99.90;;;;;;5065347;28;20021;-76
2023/03/04 01:50:22;;;;;;;23.05;10.20;;;-0.80;99.90;;;;;;5063490;28;20021;-76
2023/03/04 01:52:48;;;;;;;19.98;9.98;;;-0.80;99.90;;;;;;5067566;28;20041;-76
2023/03/04 01:55:16;;;;;;;35.33;13.63;;;-0.70;99.90;;;;;;5067010;28;20021;-76
2023/03/04 01:57:42;;;;;;;26.55;10.32;;;-0.70;99.90;;;;;;5067571;28;20021;-76
2023/03/04 02:00:21;;;;;;;25.67;10.55;;;-0.70;99.90;;;;;;5068054;28;20565;-76
2023/03/04 02:02:49;;;;;;;23.42;9.90;;;-0.70;99.90;;;;;;5068257;28;20017;-75
2023/03/04 02:05:16;;;;;;;23.23;11.20;;;-0.80;99.90;;;;;;5067721;28;20017;-74
2023/03/04 02:07:42;;;;;;;29.60;11.65;;;-0.70;99.90;;;;;;5067353;28;20021;-78
2023/03/04 02:10:09;;;;;;;23.83;9.98;;;-0.80;99.90;;;;;;5064274;28;20025;-75
2023/03/04 02:12:35;;;;;;;22.05;9.27;;;-0.80;99.90;;;;;;5063884;28;20021;-75
2023/03/04 02:15:00;;;;;;;26.65;10.50;;;-0.90;99.90;;;;;;5064637;28;20036;-77
2023/03/04 02:17:27;;;;;;;20.92;10.30;;;-1.00;99.90;;;;;;5059542;28;20032;-78
2023/03/04 02:20:15;;;;;;;20.27;10.18;;;-1.00;99.90;;;;;;5058736;28;20032;-76
2023/03/04 02:22:48;;;;;;;25.45;11.40;;;-1.00;99.90;;;;;;5056122;28;20024;-76
2023/03/04 02:25:20;;;;;;;23.95;10.93;;;-0.90;99.90;;;;;;5056852;28;20024;-76
2023/03/04 02:27:46;;;;;;;27.98;10.98;;;-0.60;99.90;;;;;;5056767;28;20104;-76
2023/03/04 02:30:13;;;;;;;27.60;12.10;;;-1.00;99.90;;;;;;5057093;28;20513;-77
2023/03/04 02:32:38;;;;;;;23.23;11.18;;;-1.00;99.90;;;;;;5057167;28;20021;-76
2023/03/04 02:35:05;;;;;;;24.48;10.73;;;-1.10;99.90;;;;;;5055204;28;20155;-76
2023/03/04 02:37:30;;;;;;;19.42;9.57;;;-1.20;99.90;;;;;;5054823;28;20040;-77
2023/03/04 02:39:56;;;;;;;24.15;10.68;;;-1.20;99.90;;;;;;5055817;28;20021;-76
2023/03/04 02:42:21;;;;;;;23.13;10.55;;;-1.20;99.90;;;;;;5056469;28;20043;-75
2023/03/04 02:44:49;;;;;;;26.95;10.85;;;-1.20;99.90;;;;;;5054440;28;20060;-76
2023/03/04 02:47:17;;;;;;;20.90;10.27;;;-1.20;99.90;;;;;;5055332;28;20025;-76
2023/03/04 02:49:43;;;;;;;24.25;11.10;;;-1.20;99.90;;;;;;5055810;28;20023;-76
2023/03/04 02:52:23;;;;;;;26.27;10.50;;;-1.20;99.90;;;;;;5055008;28;20215;-78
2023/03/04 02:54:49;;;;;;;20.67;10.50;;;-1.20;99.90;;;;;;5053757;28;20402;-76
2023/03/04 02:57:15;;;;;;;21.48;10.13;;;-1.20;99.90;;;;;;5053174;28;20027;-75
2023/03/04 02:59:42;;;;;;;26.80;11.15;;;-1.20;99.90;;;;;;5053352;28;20393;-76
2023/03/04 03:02:08;;;;;;;19.25;10.35;;;-1.10;99.90;;;;;;5054648;28;20059;-76
2023/03/04 03:04:36;;;;;;;22.40;10.05;;;-1.20;99.90;;;;;;5053952;28;20021;-76
2023/03/04 03:07:02;;;;;;;22.75;11.32;;;-1.20;99.90;;;;;;5052543;28;20021;-76
2023/03/04 03:09:28;;;;;;;23.50;11.15;;;-1.30;99.90;;;;;;5054380;28;20036;-76
2023/03/04 03:11:53;;;;;;;19.33;9.35;;;-1.30;99.90;;;;;;5053897;28;20021;-76
2023/03/04 03:14:19;;;;;;;24.38;10.95;;;-1.30;99.90;;;;;;5053019;28;20056;-76
2023/03/04 03:16:44;;;;;;;23.98;11.48;;;-1.30;99.90;;;;;;5052333;28;20021;-75
2023/03/04 03:19:10;;;;;;;24.63;11.52;;;-1.40;99.90;;;;;;5052307;28;20496;-76
2023/03/04 03:21:36;;;;;;;25.70;11.85;;;-1.40;99.90;;;;;;5053747;28;20037;-76
2023/03/04 03:24:01;;;;;;;24.88;11.25;;;-1.20;99.90;;;;;;5053030;28;20100;-76
2023/03/04 03:26:27;;;;;;;25.42;11.35;;;-1.40;99.90;;;;;;5053424;28;20461;-76
2023/03/04 03:28:53;;;;;;;23.48;10.77;;;-1.40;99.90;;;;;;5053655;28;20055;-76
2023/03/04 03:31:19;;;;;;;24.33;11.35;;;-1.40;99.90;;;;;;5052698;28;20039;-78
2023/03/04 03:33:44;;;;;;;28.48;11.02;;;-1.50;99.90;;;;;;5053887;28;20096;-78
2023/03/04 03:36:10;;;;;;;22.88;9.60;;;-1.60;99.90;;;;;;5053612;28;20082;-76
2023/03/04 03:38:36;;;;;;;25.45;11.43;;;-1.60;99.90;;;;;;5053344;28;20386;-76
2023/03/04 03:41:01;;;;;;;22.27;10.60;;;-1.60;99.90;;;;;;5051888;28;20024;-75
2023/03/04 03:43:27;;;;;;;19.33;10.55;;;-1.70;99.90;;;;;;5053872;28;20055;-76
2023/03/04 03:45:53;;;;;;;22.58;10.23;;;-1.60;99.90;;;;;;5053232;28;20032;-76
2023/03/04 03:48:18;;;;;;;29.15;12.10;;;-1.70;99.90;;;;;;5053163;28;20029;-76
2023/03/04 03:50:44;;;;;;;22.33;10.23;;;-1.70;99.90;;;;;;5053447;28;20071;-76
2023/03/04 03:53:10;;;;;;;22.98;11.43;;;-1.80;99.90;;;;;;5052599;28;20021;-76
2023/03/04 03:55:36;;;;;;;17.40;9.60;;;-1.80;99.90;;;;;;5051540;28;20388;-76
2023/03/04 03:58:01;;;;;;;20.77;9.48;;;-1.80;99.90;;;;;;5053028;28;20028;-76
2023/03/04 04:00:27;;;;;;;23.85;9.23;;;-1.80;99.90;;;;;;5053578;28;20109;-76
2023/03/04 04:02:58;;;;;;;20.35;8.23;;;-1.80;99.90;;;;;;5052338;28;20120;-76
2023/03/04 04:05:24;;;;;;;20.95;9.55;;;-1.80;99.90;;;;;;5052977;28;20029;-76
2023/03/04 04:07:49;;;;;;;21.05;9.57;;;-1.80;99.90;;;;;;5053146;28;20096;-77
2023/03/04 04:10:15;;;;;;;20.80;9.77;;;-1.80;99.90;;;;;;5053144;28;20478;-76
2023/03/04 04:12:41;;;;;;;22.52;9.80;;;-1.90;99.90;;;;;;5052354;28;20021;-76
2023/03/04 04:15:09;;;;;;;20.77;8.90;;;-1.90;99.90;;;;;;5053282;28;20093;-76
2023/03/04 04:17:35;;;;;;;19.10;9.45;;;-1.90;99.90;;;;;;5051230;28;20036;-76
2023/03/04 04:20:00;;;;;;;17.98;9.15;;;-1.90;99.90;;;;;;5052148;28;20017;-76
2023/03/04 04:22:26;;;;;;;19.70;10.15;;;-2.00;99.90;;;;;;5052243;28;20017;-77
2023/03/04 04:24:51;;;;;;;28.75;10.75;;;-2.00;99.90;;;;;;5052228;28;20025;-76
2023/03/04 04:27:17;;;;;;;24.38;10.02;;;-2.00;99.90;;;;;;5052813;28;20017;-76
2023/03/04 04:29:43;;;;;;;18.67;10.02;;;-2.00;99.90;;;;;;5052111;28;20070;-75
2023/03/04 04:32:08;;;;;;;32.58;11.18;;;-2.10;99.90;;;;;;5052170;28;20033;-77
2023/03/04 04:34:34;;;;;;;23.75;11.45;;;-2.10;99.90;;;;;;5052495;28;20025;-76
2023/03/04 04:37:00;;;;;;;22.20;10.25;;;-2.10;99.90;;;;;;5052243;28;20507;-76
2023/03/04 04:39:26;;;;;;;26.75;10.52;;;-2.20;99.90;;;;;;5052120;28;20120;-77
2023/03/04 04:41:51;;;;;;;19.75;10.02;;;-2.20;99.90;;;;;;5053970;28;20074;-75
2023/03/04 04:44:17;;;;;;;17.88;8.95;;;-2.20;99.90;;;;;;5054771;28;20021;-76
2023/03/04 04:46:43;;;;;;;22.55;10.20;;;-2.20;99.90;;;;;;5053982;28;20082;-76
2023/03/04 04:49:09;;;;;;;27.25;10.57;;;-2.30;99.90;;;;;;5054468;28;20025;-76
2023/03/04 04:51:36;;;;;;;24.42;9.90;;;-2.20;99.90;;;;;;5054410;28;20028;-76
2023/03/04 04:54:02;;;;;;;23.13;9.93;;;-2.20;99.90;;;;;;5056492;28;20024;-74
2023/03/04 04:56:28;;;;;;;22.90;9.55;;;-2.30;99.90;;;;;;5056806;28;20025;-75
2023/03/04 04:58:57;;;;;;;23.45;10.23;;;-2.30;99.90;;;;;;5062914;28;20036;-75
2023/03/04 05:01:24;;;;;;;19.85;9.63;;;-2.30;99.90;;;;;;5051597;28;20389;-77
2023/03/04 05:03:52;;;;;;;31.85;11.68;;;-2.30;99.90;;;;;;5052668;28;20029;-76
2023/03/04 05:06:20;;;;;;;34.42;12.88;;;-2.30;99.90;;;;;;5051236;28;20566;-76
2023/03/04 05:08:45;;;;;;;29.13;10.70;;;-2.30;99.90;;;;;;5053089;28;20478;-76
2023/03/04 05:11:11;;;;;;;22.58;10.05;;;-2.30;99.90;;;;;;5051762;28;20027;-76
2023/03/04 05:13:37;;;;;;;24.98;9.68;;;-2.40;99.90;;;;;;5052004;28;20096;-75
2023/03/04 05:16:03;;;;;;;22.33;10.50;;;-2.40;99.90;;;;;;5052640;28;20025;-75
2023/03/04 05:18:29;;;;;;;22.55;10.23;;;-2.40;99.90;;;;;;5056618;28;20025;-75
2023/03/04 05:20:57;;;;;;;26.38;11.90;;;-2.40;99.90;;;;;;5063336;28;20033;-75
2023/03/04 05:23:24;;;;;;;23.17;9.70;;;-2.50;99.90;;;;;;5058114;28;20104;-76
2023/03/04 05:25:49;;;;;;;18.60;9.55;;;-2.40;99.90;;;;;;5052317;28;20033;-76
2023/03/04 05:28:16;;;;;;;23.10;10.05;;;-2.40;99.90;;;;;;5052148;28;20025;-76
2023/03/04 05:30:43;;;;;;;21.77;10.15;;;-2.40;99.90;;;;;;5050648;28;20040;-76
2023/03/04 05:33:10;;;;;;;17.02;9.70;;;-2.40;99.90;;;;;;5052406;28;20592;-76
2023/03/04 05:35:38;;;;;;;18.70;9.85;;;-2.40;99.90;;;;;;5050672;28;20021;-76
2023/03/04 05:38:05;;;;;;;21.77;9.93;;;-2.40;99.90;;;;;;5053357;28;20033;-75
2023/03/04 05:40:31;;;;;;;23.83;11.32;;;-2.40;99.90;;;;;;5055718;28;20029;-76
2023/03/04 05:42:57;;;;;;;21.55;10.43;;;-2.50;99.90;;;;;;5056013;28;20029;-77
2023/03/04 05:45:24;;;;;;;22.50;11.20;;;-2.50;99.90;;;;;;5055327;28;20580;-76
2023/03/04 05:47:50;;;;;;;24.73;10.43;;;-2.50;99.90;;;;;;5054110;28;20062;-77
2023/03/04 05:50:16;;;;;;;21.90;10.63;;;-2.50;99.90;;;;;;5055637;28;20025;-76
2023/03/04 05:52:42;;;;;;;25.30;12.25;;;-2.40;99.90;;;;;;5055533;28;20029;-76
2023/03/04 05:55:08;;;;;;;21.58;10.60;;;-2.40;99.90;;;;;;5055663;28;20055;-74
2023/03/04 05:57:34;;;;;;;21.75;10.93;;;-2.30;99.90;;;;;;5055222;28;20512;-76
2023/03/04 05:59:59;;;;;;;20.13;9.88;;;-2.40;99.90;;;;;;5055538;28;20021;-77
2023/03/04 06:02:25;;;;;;;18.33;9.70;;;-2.30;99.90;;;;;;5055618;28;20032;-77
2023/03/04 06:04:50;;;;;;;25.92;10.55;;;-2.20;99.90;;;;;;5054677;28;20025;-76
2023/03/04 06:07:16;;;;;;;23.73;9.68;;;-2.20;99.90;;;;;;5054094;28;20032;-76
2023/03/04 06:09:44;;;;;;;25.15;10.63;;;-2.20;99.90;;;;;;5055374;28;20105;-78
2023/03/04 06:12:10;;;;;;;18.95;9.82;;;-1.40;99.90;;;;;;5059200;28;20080;-77
2023/03/04 06:14:36;;;;;;;22.63;10.38;;;-1.50;99.90;;;;;;5057059;28;20013;-77
2023/03/04 06:17:01;;;;;;;25.60;9.95;;;-1.60;99.90;;;;;;5055394;28;20482;-77
2023/03/04 06:19:27;;;;;;;25.92;12.10;;;-1.60;99.90;;;;;;5055227;28;20398;-77
2023/03/04 06:21:53;;;;;;;23.38;10.02;;;-1.80;99.90;;;;;;5055308;28;20075;-77
2023/03/04 06:24:18;;;;;;;20.67;9.93;;;-1.80;99.90;;;;;;5057036;28;20033;-77
2023/03/04 06:26:44;;;;;;;24.35;10.25;;;-1.80;99.90;;;;;;5054975;28;20025;-77
2023/03/04 06:29:10;;;;;;;24.65;11.15;;;-1.80;99.90;;;;;;5056666;28;20028;-77
2023/03/04 06:31:35;;;;;;;24.63;10.85;;;-1.80;99.90;;;;;;5056859;28;20036;-77
2023/03/04 06:34:01;;;;;;;24.77;11.60;;;-1.80;99.90;;;;;;5055322;28;20021;-76
2023/03/04 06:36:26;;;;;;;26.77;11.95;;;-1.70;99.90;;;;;;5054804;28;20079;-77
2023/03/04 06:38:52;;;;;;;32.75;12.30;;;-1.50;99.90;;;;;;5055023;28;20057;-77
2023/03/04 06:41:18;;;;;;;30.30;13.27;;;-1.60;99.90;;;;;;5055007;28;20033;-77
2023/03/04 06:43:43;;;;;;;31.48;15.32;;;-1.60;99.90;;;;;;5056681;28;20028;-76
2023/03/04 06:46:09;;;;;;;26.70;12.30;;;-1.50;99.90;;;;;;5054980;28;20079;-77
2023/03/04 06:48:36;;;;;;;30.35;12.25;;;-1.40;99.90;;;;;;5053869;28;20055;-77
2023/03/04 06:51:10;;;;;;;23.83;11.05;;;-1.30;99.90;;;;;;5055935;28;20029;-78
2023/03/04 06:53:36;;;;;;;28.38;11.70;;;-1.20;99.90;;;;;;5054965;28;20028;-77
2023/03/04 06:56:02;;;;;;;28.20;13.07;;;-1.00;99.90;;;;;;5055881;28;20021;-76
2023/03/04 06:58:27;;;;;;;22.27;11.38;;;-1.00;99.90;;;;;;5055647;28;20101;-78
2023/03/04 07:00:53;;;;;;;24.63;12.40;;;-0.90;99.90;;;;;;5055761;28;20048;-77
2023/03/04 07:03:19;;;;;;;28.90;12.05;;;-0.80;99.90;;;;;;5054560;28;20508;-77
2023/03/04 07:05:44;;;;;;;25.58;12.38;;;-0.70;99.90;;;;;;5054431;28;20124;-77
2023/03/04 07:08:10;;;;;;;26.13;11.65;;;-0.60;99.90;;;;;;5054789;28;20060;-77
2023/03/04 07:10:35;;;;;;;29.45;12.88;;;-0.60;99.90;;;;;;5054826;28;20029;-77
2023/03/04 07:13:02;;;;;;;30.63;12.98;;;-0.60;99.90;;;;;;5056016;28;20081;-76
2023/03/04 07:15:27;;;;;;;25.65;12.30;;;-0.50;99.90;;;;;;5052376;28;20025;-77
2023/03/04 07:17:53;;;;;;;20.55;10.52;;;-0.40;99.90;;;;;;5053272;28;20035;-76
2023/03/04 07:20:19;;;;;;;25.55;11.55;;;-0.20;99.90;;;;;;5053790;28;20104;-75
2023/03/04 07:22:45;;;;;;;24.95;11.38;;;0.00;99.90;;;;;;5054775;28;20025;-76
2023/03/04 07:25:11;;;;;;;29.50;12.90;;;-0.10;99.90;;;;;;5053312;28;20021;-76
2023/03/04 07:27:37;;;;;;;22.98;10.93;;;0.30;99.90;;;;;;5052535;28;20021;-76
2023/03/04 07:30:07;;;;;;;27.50;12.25;;;0.20;99.90;;;;;;5052608;28;20118;-75
2023/03/04 07:32:34;;;;;;;24.70;12.07;;;0.30;99.90;;;;;;5053784;28;20039;-75
2023/03/04 07:35:00;;;;;;;25.63;12.18;;;0.40;99.90;;;;;;5054119;28;20489;-77
2023/03/04 07:37:26;;;;;;;30.77;12.98;;;0.60;99.90;;;;;;5055191;28;20021;-76
2023/03/04 07:39:51;;;;;;;26.35;12.57;;;0.80;99.90;;;;;;5054673;28;20031;-75
2023/03/04 07:42:17;;;;;;;30.33;12.73;;;0.70;99.90;;;;;;5054926;28;20025;-76
2023/03/04 07:44:43;;;;;;;32.15;12.30;;;0.80;99.90;;;;;;5054863;28;20029;-76
2023/03/04 07:47:08;;;;;;;35.90;12.85;;;1.00;99.90;;;;;;5053362;28;20029;-76
2023/03/04 07:49:34;;;;;;;32.35;13.07;;;1.10;99.90;;;;;;5053339;28;20048;-77
2023/03/04 07:52:03;;;;;;;27.95;12.35;;;1.20;99.90;;;;;;5053393;28;20391;-76
2023/03/04 07:54:29;;;;;;;26.52;12.57;;;1.30;99.90;;;;;;5054095;28;20056;-76
2023/03/04 07:56:54;;;;;;;27.58;14.13;;;1.60;99.90;;;;;;5054406;28;20025;-77
2023/03/04 07:59:20;;;;;;;26.40;13.23;;;1.60;99.90;;;;;;5053542;28;20031;-76
2023/03/04 08:01:46;;;;;;;25.17;13.02;;;1.70;99.90;;;;;;5052885;28;20020;-76
2023/03/04 08:04:11;;;;;;;26.63;13.23;;;1.90;99.90;;;;;;5053900;28;20421;-77
2023/03/04 08:06:39;;;;;;;22.52;12.23;;;2.00;99.90;;;;;;5053682;28;20082;-77
2023/03/04 08:09:07;;;;;;;19.77;11.98;;;2.10;99.90;;;;;;5052880;28;20025;-77
2023/03/04 08:11:35;;;;;;;25.92;13.10;;;2.20;99.90;;;;;;5054269;28;20096;-77
2023/03/04 08:14:01;;;;;;;28.63;14.32;;;2.30;99.90;;;;;;5053663;28;20060;-76
2023/03/04 08:16:27;;;;;;;30.98;13.40;;;2.50;99.90;;;;;;5053716;28;20022;-77
2023/03/04 08:18:55;;;;;;;25.67;12.10;;;2.70;99.90;;;;;;5054001;28;20033;-76
2023/03/04 08:21:22;;;;;;;25.95;12.95;;;2.80;99.90;;;;;;5053251;28;20414;-76
2023/03/04 08:23:49;;;;;;;29.52;12.65;;;2.80;99.90;;;;;;5053584;28;20025;-77
2023/03/04 08:26:19;;;;;;;27.38;12.13;;;3.00;99.90;;;;;;5053095;28;20036;-75
2023/03/04 08:28:45;;;;;;;19.80;11.30;;;3.10;99.90;;;;;;5053184;28;20390;-76
2023/03/04 08:31:15;;;;;;;24.67;11.88;;;3.30;99.90;;;;;;5052730;28;20033;-80
2023/03/04 08:33:41;;;;;;;22.90;13.02;;;3.40;99.90;;;;;;5050695;28;20021;-78
2023/03/04 08:36:07;;;;;;;33.40;12.85;;;5.70;99.90;;;;;;5051740;28;20028;-78
2023/03/04 08:38:34;;;;;;;23.33;12.13;;;6.30;99.90;;;;;;5051907;28;20025;-77
2023/03/04 08:41:00;;;;;;;21.55;12.23;;;6.40;99.90;;;;;;5051266;28;20400;-78
2023/03/04 08:43:26;;;;;;;21.63;10.98;;;5.90;99.90;;;;;;5052026;28;20400;-78
2023/03/04 08:45:53;;;;;;;20.15;11.32;;;5.60;99.90;;;;;;5052956;28;20052;-77
2023/03/04 08:48:19;;;;;;;18.33;10.40;;;5.30;99.90;;;;;;5052358;28;20033;-77
2023/03/04 08:50:46;;;;;;;23.70;12.55;;;5.20;99.90;;;;;;5053308;28;20576;-77
2023/03/04 08:53:12;;;;;;;21.48;11.02;;;5.10;99.90;;;;;;5052253;28;20026;-77
2023/03/04 08:55:39;;;;;;;21.85;10.82;;;5.20;99.90;;;;;;5051070;28;20029;-79
2023/03/04 08:58:05;;;;;;;26.33;11.88;;;5.10;99.90;;;;;;5050983;28;20028;-77
2023/03/04 09:00:32;;;;;;;22.58;11.57;;;5.20;99.90;;;;;;5052479;28;20079;-76
2023/03/04 09:02:58;;;;;;;35.28;15.35;;;5.40;99.90;;;;;;5051255;28;20475;-78
2023/03/04 09:05:23;;;;;;;69.18;24.98;;;5.40;99.90;;;;;;5052421;28;20077;-77
2023/03/04 09:07:49;;;;;;;63.90;23.17;;;5.60;99.90;;;;;;5050919;28;20041;-77
2023/03/04 09:10:15;;;;;;;19.38;11.80;;;5.80;99.90;;;;;;5052825;28;20040;-77
2023/03/04 09:12:40;;;;;;;43.65;19.10;;;5.70;99.90;;;;;;5055396;28;20389;-78
2023/03/04 09:15:06;;;;;;;34.95;16.67;;;5.90;99.90;;;;;;5054835;28;20028;-78
2023/03/04 09:17:32;;;;;;;32.33;14.48;;;6.00;99.90;;;;;;5055767;28;20099;-76
2023/03/04 09:19:58;;;;;;;49.33;20.98;;;6.20;99.90;;;;;;5056585;28;20028;-77
2023/03/04 09:22:24;;;;;;;29.85;13.20;;;6.30;99.90;;;;;;5055713;28;20433;-77
2023/03/04 09:24:49;;;;;;;17.65;8.52;;;6.40;99.90;;;;;;5056125;28;20473;-77
2023/03/04 09:27:15;;;;;;;23.13;11.70;;;6.40;99.90;;;;;;5055375;28;20025;-78
2023/03/04 09:29:42;;;;;;;19.10;9.02;;;6.50;99.90;;;;;;5054213;28;20031;-77
2023/03/04 09:32:07;;;;;;;17.30;8.38;;;6.60;99.90;;;;;;5055571;28;20029;-77
2023/03/04 09:34:33;;;;;;;16.70;7.78;;;6.70;99.90;;;;;;5055713;28;20079;-77
2023/03/04 09:36:59;;;;;;;13.05;7.55;;;6.80;99.90;;;;;;5055205;28;20400;-76
2023/03/04 09:39:25;;;;;;;16.48;9.10;;;7.10;99.90;;;;;;5057073;28;20112;-77
2023/03/04 09:41:56;;;;;;;15.93;7.38;;;7.40;99.90;;;;;;5057092;28;20025;-76
2023/03/04 09:44:21;;;;;;;18.10;8.30;;;7.60;99.90;;;;;;5057192;28;20025;-80
2023/03/04 09:46:48;;;;;;;12.23;8.05;;;7.50;99.90;;;;;;5057514;28;20025;-77
2023/03/04 09:49:16;;;;;;;13.98;8.15;;;7.80;99.90;;;;;;5057544;28;20021;-79
2023/03/04 09:51:52;;;;;;;21.10;6.57;;;7.90;99.90;;;;;;5060613;28;20021;-77
2023/03/04 09:54:41;;;;;;;11.23;7.05;;;7.90;99.90;;;;;;5057583;28;20032;-78
2023/03/04 09:57:27;;;;;;;14.15;6.95;;;8.70;99.90;;;;;;5056968;28;20032;-78
2023/03/04 10:00:11;;;;;;;14.18;7.72;;;9.00;99.90;;;;;;5057195;28;20481;-78
2023/03/04 10:03:11;;;;;;;13.70;6.63;;;9.20;99.20;;;;;;5063127;28;20021;-82
2023/03/04 10:05:55;;;;;;;13.73;7.30;;;9.10;98.90;;;;;;5055651;28;20025;-76
2023/03/04 10:08:46;;;;;;;12.88;6.93;;;9.10;98.50;;;;;;5056467;28;20021;-77
2023/03/04 10:11:33;;;;;;;12.60;5.57;;;9.10;98.20;;;;;;5021043;28;20458;-78
2023/03/04 10:14:02;;;;;;;15.98;6.45;;;9.30;98.30;;;;;;5065329;28;20055;-76
2023/03/04 10:16:55;;;;;;;10.52;5.88;;;9.30;96.60;;;;;;5075824;28;20028;-79
2023/03/04 10:19:37;;;;;;;13.02;6.53;;;9.40;96.50;;;;;;5068427;28;20025;-79
2023/03/04 10:22:34;;;;;;;11.90;6.90;;;9.50;95.90;;;;;;5075787;28;20028;-77
2023/03/04 10:25:13;;;;;;;10.90;6.55;;;9.70;95.90;;;;;;5074151;28;20408;-78
2023/03/04 10:27:39;;;;;;;14.25;6.65;;;9.80;95.40;;;;;;5076598;28;20052;-78
2023/03/04 10:30:25;;;;;;;10.77;6.32;;;9.90;95.20;;;;;;5075439;28;20031;-78
2023/03/04 10:32:51;;;;;;;9.40;5.03;;;10.00;94.60;;;;;;5076283;28;20033;-78
2023/03/04 10:35:19;;;;;;;8.27;5.13;;;10.10;94.10;;;;;;5074527;28;20024;-77
2023/03/04 10:37:48;;;;;;;11.57;6.22;;;10.20;93.50;;;;;;5043386;28;20106;-77
2023/03/04 10:40:24;;;;;;;16.30;6.38;;;10.30;92.80;;;;;;5033742;28;20030;-76
2023/03/04 10:42:50;;;;;;;11.77;5.90;;;10.40;92.60;;;;;;5034678;28;20025;-78
2023/03/04 10:45:22;;;;;;;10.30;6.85;;;10.20;92.30;;;;;;5035222;28;20501;-78
2023/03/04 10:47:53;;;;;;;7.53;4.35;;;10.20;92.40;;;;;;5034312;28;20032;-77
2023/03/04 10:50:25;;;;;;;7.65;4.80;;;10.10;91.90;;;;;;5033973;28;20113;-78
2023/03/04 10:52:54;;;;;;;11.60;5.28;;;10.30;92.70;;;;;;5035480;28;20092;-78
2023/03/04 10:55:40;;;;;;;14.40;5.78;;;10.40;92.30;;;;;;5035830;28;20021;-78
2023/03/04 10:58:06;;;;;;;;;;;10.40;91.30;;;;;;5036003;28;20113;-78
2023/03/04 11:00:34;;;;;;;8.98;4.30;;;10.30;90.70;;;;;;5034022;28;19988;-78
2023/03/04 11:03:21;;;;;;;16.90;5.78;;;10.30;91.30;;;;;;5034659;28;20025;-76
2023/03/04 11:05:47;;;;;;;10.85;5.35;;;10.40;91.10;;;;;;5034440;28;20548;-77
2023/03/04 11:08:21;;;;;;;9.75;5.70;;;10.50;91.20;;;;;;5033656;28;20029;-78
2023/03/04 11:10:50;;;;;;;9.30;5.68;;;10.70;91.00;;;;;;5073172;28;20020;-77
2023/03/04 11:13:23;;;;;;;12.07;4.78;;;10.90;89.00;;;;;;5074285;28;20024;-77
2023/03/04 11:15:54;;;;;;;7.97;5.10;;;10.90;88.90;;;;;;5089128;28;20048;-78
2023/03/04 11:18:26;;;;;;;10.05;5.03;;;10.70;87.00;;;;;;5076389;28;20028;-78
2023/03/04 11:20:54;;;;;;;9.57;5.40;;;10.90;86.90;;;;;;5077355;28;20020;-77
2023/03/04 11:23:40;;;;;;;10.40;5.78;;;11.00;87.70;;;;;;5077379;28;20408;-78
2023/03/04 11:26:18;;;;;;;8.68;4.43;;;11.20;85.70;;;;;;5079135;28;20025;-78
2023/03/04 11:28:46;;;;;;;7.40;4.53;;;11.20;83.80;;;;;;5075943;28;20055;-77
2023/03/04 11:31:29;;;;;;;9.82;4.13;;;11.40;82.30;;;;;;5077288;28;20028;-76
2023/03/04 11:34:01;;;;;;;13.77;5.70;;;11.20;82.00;;;;;;5072191;28;20021;-76
2023/03/04 11:36:50;;;;;;;10.10;4.80;;;11.50;83.80;;;;;;5072500;28;20020;-78
2023/03/04 11:39:23;;;;;;;10.93;4.22;;;11.50;82.40;;;;;;5074063;28;20036;-78
2023/03/04 11:42:03;;;;;;;10.77;4.80;;;11.50;82.10;;;;;;5074006;28;20477;-78
2023/03/04 11:44:29;;;;;;;12.50;5.18;;;11.60;76.80;;;;;;5073011;28;20370;-77
2023/03/04 11:47:16;;;;;;;12.65;5.03;;;11.60;77.20;;;;;;5072751;28;20028;-79
2023/03/04 11:50:07;;;;;;;;;;;11.70;76.50;;;;;;5075569;28;20392;-77
2023/03/04 11:52:35;;;;;;;13.65;5.32;;;11.70;76.50;;;;;;5074384;28;19908;-79
2023/03/04 11:55:07;;;;;;;10.43;5.20;;;11.80;78.30;;;;;;5071805;28;20020;-77
2023/03/04 11:57:38;;;;;;;14.05;4.43;;;11.80;75.80;;;;;;5074241;28;20392;-77
2023/03/04 12:00:19;;;;;;;11.68;4.70;;;11.90;76.00;;;;;;5073692;28;20028;-78
2023/03/04 12:03:11;;;;;;;14.05;7.15;;;11.90;75.90;;;;;;5074204;28;20031;-78
2023/03/04 12:05:49;;;;;;;8.85;4.45;;;12.00;76.20;;;;;;5072978;28;20027;-77
2023/03/04 12:08:35;;;;;;;12.13;4.53;;;12.10;74.60;;;;;;5071487;28;20017;-77
2023/03/04 12:11:08;;;;;;;10.52;5.63;;;12.20;74.80;;;;;;5072807;28;20032;-78
2023/03/04 12:13:59;;;;;;;13.13;6.72;;;12.40;75.10;;;;;;5072027;28;20024;-78
2023/03/04 12:16:27;;;;;;;8.23;4.75;;;12.50;73.00;;;;;;5072061;28;20032;-78
2023/03/04 12:19:11;;;;;;;12.63;5.25;;;12.60;72.90;;;;;;5074543;28;20473;-77
2023/03/04 12:22:07;;;;;;;8.35;4.43;;;12.60;71.90;;;;;;5073587;28;20028;-77
2023/03/04 12:24:48;;;;;;;10.02;4.80;;;12.70;72.40;;;;;;5072820;28;20025;-77
2023/03/04 12:27:23;;;;;;;8.10;4.95;;;12.80;70.00;;;;;;5073494;28;20123;-80
2023/03/04 12:30:33;;;;;;;12.80;5.75;;;12.90;68.50;;;;;;5075139;28;20032;-79
2023/03/04 12:33:06;;;;;;;36.85;16.75;;;13.00;70.50;;;;;;5074899;28;20029;-77
2023/03/04 12:35:52;;;;;;;42.08;19.25;;;13.00;69.80;;;;;;5073308;28;20029;-78
2023/03/04 12:38:48;;;;;;;10.10;5.70;;;13.00;68.80;;;;;;5071685;28;20028;-78
2023/03/04 12:41:27;;;;;;;12.30;5.83;;;13.00;67.40;;;;;;5072568;28;20020;-77